sensor_id;sensor_type;location;lat;lon;timestamp;P1;durP1;ratioP1;P2;durP2;ratioP2
76807;SDS011;65758;45.458;11.062;2023-07-13T00:00:47;2.50;;;1.40;;
76807;SDS011;65758;45.458;11.062;2023-07-13T00:03:14;1.60;;;1.50;;
76807;SDS011;65758;45.458;11.062;2023-07-13T00:05:41;3.00;;;1.60;;
76807;SDS011;65758;45.458;11.062;2023-07-13T00:08:08;2.20;;;1.60;;
76807;SDS011;65758;45.458;11.062;2023-07-13T00:10:39;2.80;;;1.40;;
76807;SDS011;65758;45.458;11.062;2023-07-13T00:13:08;4.10;;;1.80;;
76807;SDS011;65758;45.458;11.062;2023-07-13T00:15:36;0.90;;;0.90;;
76807;SDS011;65758;45.458;11.062;2023-07-13T00:18:03;1.30;;;1.10;;
76807;SDS011;65758;45.458;11.062;2023-07-13T00:20:30;2.60;;;0.70;;
76807;SDS011;65758;45.458;11.062;2023-07-13T00:22:56;2.20;;;1.10;;
76807;SDS011;65758;45.458;11.062;2023-07-13T00:25:23;1.90;;;1.00;;
76807;SDS011;65758;45.458;11.062;2023-07-13T00:27:50;3.20;;;1.20;;
76807;SDS011;65758;45.458;11.062;2023-07-13T00:30:17;2.30;;;1.10;;
76807;SDS011;65758;45.458;11.062;2023-07-13T00:32:44;3.80;;;1.30;;
76807;SDS011;65758;45.458;11.062;2023-07-13T00:35:12;2.30;;;1.10;;
76807;SDS011;65758;45.458;11.062;2023-07-13T00:37:40;2.70;;;1.20;;
76807;SDS011;65758;45.458;11.062;2023-07-13T00:40:09;2.30;;;1.30;;
76807;SDS011;65758;45.458;11.062;2023-07-13T00:42:38;2.20;;;1.30;;
76807;SDS011;65758;45.458;11.062;2023-07-13T00:47:38;1.50;;;1.00;;
76807;SDS011;65758;45.458;11.062;2023-07-13T00:50:09;3.80;;;1.40;;
76807;SDS011;65758;45.458;11.062;2023-07-13T00:52:39;2.70;;;1.20;;
76807;SDS011;65758;45.458;11.062;2023-07-13T00:55:09;3.50;;;1.70;;
76807;SDS011;65758;45.458;11.062;2023-07-13T00:57:39;1.50;;;1.40;;
76807;SDS011;65758;45.458;11.062;2023-07-13T01:00:07;2.50;;;1.40;;
76807;SDS011;65758;45.458;11.062;2023-07-13T01:02:36;3.00;;;1.50;;
76807;SDS011;65758;45.458;11.062;2023-07-13T01:05:12;4.20;;;1.40;;
76807;SDS011;65758;45.458;11.062;2023-07-13T01:07:43;1.60;;;1.20;;
76807;SDS011;65758;45.458;11.062;2023-07-13T01:10:11;3.70;;;1.30;;
76807;SDS011;65758;45.458;11.062;2023-07-13T01:12:39;2.50;;;1.50;;
76807;SDS011;65758;45.458;11.062;2023-07-13T01:18:11;3.70;;;2.00;;
76807;SDS011;65758;45.458;11.062;2023-07-13T01:21:03;2.70;;;1.60;;
76807;SDS011;65758;45.458;11.062;2023-07-13T01:23:31;3.50;;;1.70;;
76807;SDS011;65758;45.458;11.062;2023-07-13T01:25:59;2.70;;;1.50;;
76807;SDS011;65758;45.458;11.062;2023-07-13T01:28:27;2.70;;;1.60;;
76807;SDS011;65758;45.458;11.062;2023-07-13T01:30:56;3.20;;;1.80;;
76807;SDS011;65758;45.458;11.062;2023-07-13T01:33:25;3.30;;;1.60;;
76807;SDS011;65758;45.458;11.062;2023-07-13T01:35:53;5.20;;;1.70;;
76807;SDS011;65758;45.458;11.062;2023-07-13T01:38:20;4.40;;;1.80;;
76807;SDS011;65758;45.458;11.062;2023-07-13T01:40:50;3.30;;;1.60;;
76807;SDS011;65758;45.458;11.062;2023-07-13T01:43:17;4.60;;;1.80;;
76807;SDS011;65758;45.458;11.062;2023-07-13T01:45:45;3.00;;;1.80;;
76807;SDS011;65758;45.458;11.062;2023-07-13T01:48:13;4.00;;;1.60;;
76807;SDS011;65758;45.458;11.062;2023-07-13T01:50:40;3.30;;;1.70;;
76807;SDS011;65758;45.458;11.062;2023-07-13T01:53:08;1.50;;;1.40;;
76807;SDS011;65758;45.458;11.062;2023-07-13T01:55:35;2.40;;;1.40;;
76807;SDS011;65758;45.458;11.062;2023-07-13T01:58:04;1.40;;;1.30;;
76807;SDS011;65758;45.458;11.062;2023-07-13T02:00:31;5.80;;;1.50;;
76807;SDS011;65758;45.458;11.062;2023-07-13T02:03:01;2.10;;;1.30;;
76807;SDS011;65758;45.458;11.062;2023-07-13T02:05:28;3.50;;;1.50;;
76807;SDS011;65758;45.458;11.062;2023-07-13T02:07:55;2.60;;;1.20;;
76807;SDS011;65758;45.458;11.062;2023-07-13T02:10:21;2.00;;;1.20;;
76807;SDS011;65758;45.458;11.062;2023-07-13T02:12:48;2.30;;;1.10;;
76807;SDS011;65758;45.458;11.062;2023-07-13T02:15:17;2.00;;;1.40;;
76807;SDS011;65758;45.458;11.062;2023-07-13T02:17:44;3.70;;;1.40;;
76807;SDS011;65758;45.458;11.062;2023-07-13T02:20:11;3.60;;;1.80;;
76807;SDS011;65758;45.458;11.062;2023-07-13T02:22:38;2.00;;;1.40;;
76807;SDS011;65758;45.458;11.062;2023-07-13T02:25:05;3.40;;;1.70;;
76807;SDS011;65758;45.458;11.062;2023-07-13T02:27:32;3.00;;;1.30;;
76807;SDS011;65758;45.458;11.062;2023-07-13T02:29:59;1.30;;;1.20;;
76807;SDS011;65758;45.458;11.062;2023-07-13T02:32:26;2.00;;;1.40;;
76807;SDS011;65758;45.458;11.062;2023-07-13T02:34:53;0.90;;;0.90;;
76807;SDS011;65758;45.458;11.062;2023-07-13T02:37:20;2.40;;;1.60;;
76807;SDS011;65758;45.458;11.062;2023-07-13T02:39:47;4.70;;;1.10;;
76807;SDS011;65758;45.458;11.062;2023-07-13T02:42:14;1.30;;;1.00;;
76807;SDS011;65758;45.458;11.062;2023-07-13T02:44:43;1.20;;;1.10;;
76807;SDS011;65758;45.458;11.062;2023-07-13T02:47:10;1.20;;;1.10;;
76807;SDS011;65758;45.458;11.062;2023-07-13T02:49:37;2.10;;;1.00;;
76807;SDS011;65758;45.458;11.062;2023-07-13T02:52:03;1.70;;;1.10;;
76807;SDS011;65758;45.458;11.062;2023-07-13T02:54:31;1.20;;;1.10;;
76807;SDS011;65758;45.458;11.062;2023-07-13T02:56:58;3.00;;;1.00;;
76807;SDS011;65758;45.458;11.062;2023-07-13T02:59:25;1.90;;;1.30;;
76807;SDS011;65758;45.458;11.062;2023-07-13T03:01:51;1.20;;;1.00;;
76807;SDS011;65758;45.458;11.062;2023-07-13T03:04:19;1.30;;;1.20;;
76807;SDS011;65758;45.458;11.062;2023-07-13T03:06:46;1.90;;;1.20;;
76807;SDS011;65758;45.458;11.062;2023-07-13T03:09:14;2.70;;;1.20;;
76807;SDS011;65758;45.458;11.062;2023-07-13T03:11:44;2.30;;;1.20;;
76807;SDS011;65758;45.458;11.062;2023-07-13T03:14:20;2.60;;;1.10;;
76807;SDS011;65758;45.458;11.062;2023-07-13T03:16:47;1.50;;;1.30;;
76807;SDS011;65758;45.458;11.062;2023-07-13T03:19:14;2.10;;;1.50;;
76807;SDS011;65758;45.458;11.062;2023-07-13T03:21:42;3.00;;;1.10;;
76807;SDS011;65758;45.458;11.062;2023-07-13T03:24:09;1.40;;;1.30;;
76807;SDS011;65758;45.458;11.062;2023-07-13T03:26:36;1.40;;;1.30;;
76807;SDS011;65758;45.458;11.062;2023-07-13T03:29:04;2.50;;;1.20;;
76807;SDS011;65758;45.458;11.062;2023-07-13T03:31:32;1.40;;;1.10;;
76807;SDS011;65758;45.458;11.062;2023-07-13T03:34:00;5.00;;;1.50;;
76807;SDS011;65758;45.458;11.062;2023-07-13T03:36:29;1.50;;;1.30;;
76807;SDS011;65758;45.458;11.062;2023-07-13T03:39:00;1.40;;;1.20;;
76807;SDS011;65758;45.458;11.062;2023-07-13T03:41:55;3.70;;;1.40;;
76807;SDS011;65758;45.458;11.062;2023-07-13T03:44:22;5.80;;;1.70;;
76807;SDS011;65758;45.458;11.062;2023-07-13T03:46:52;2.30;;;1.60;;
76807;SDS011;65758;45.458;11.062;2023-07-13T03:49:19;2.20;;;1.50;;
76807;SDS011;65758;45.458;11.062;2023-07-13T03:51:46;2.10;;;1.40;;
76807;SDS011;65758;45.458;11.062;2023-07-13T03:54:15;1.80;;;1.70;;
76807;SDS011;65758;45.458;11.062;2023-07-13T03:56:43;2.30;;;1.60;;
76807;SDS011;65758;45.458;11.062;2023-07-13T03:59:11;3.90;;;1.50;;
76807;SDS011;65758;45.458;11.062;2023-07-13T04:01:38;3.30;;;1.80;;
76807;SDS011;65758;45.458;11.062;2023-07-13T04:04:05;4.10;;;1.80;;
76807;SDS011;65758;45.458;11.062;2023-07-13T04:06:33;2.80;;;1.30;;
76807;SDS011;65758;45.458;11.062;2023-07-13T04:09:00;3.40;;;1.60;;
76807;SDS011;65758;45.458;11.062;2023-07-13T04:11:30;4.50;;;1.50;;
76807;SDS011;65758;45.458;11.062;2023-07-13T04:13:59;3.60;;;1.80;;
76807;SDS011;65758;45.458;11.062;2023-07-13T04:16:26;4.00;;;1.50;;
76807;SDS011;65758;45.458;11.062;2023-07-13T04:18:54;6.60;;;2.00;;
76807;SDS011;65758;45.458;11.062;2023-07-13T04:21:27;5.90;;;1.70;;
76807;SDS011;65758;45.458;11.062;2023-07-13T04:23:55;3.40;;;1.50;;
76807;SDS011;65758;45.458;11.062;2023-07-13T04:26:23;2.60;;;1.40;;
76807;SDS011;65758;45.458;11.062;2023-07-13T04:28:50;3.70;;;1.50;;
76807;SDS011;65758;45.458;11.062;2023-07-13T04:31:17;4.10;;;1.60;;
76807;SDS011;65758;45.458;11.062;2023-07-13T04:33:45;6.70;;;1.60;;
76807;SDS011;65758;45.458;11.062;2023-07-13T04:36:14;5.60;;;1.60;;
76807;SDS011;65758;45.458;11.062;2023-07-13T04:38:42;5.70;;;1.30;;
76807;SDS011;65758;45.458;11.062;2023-07-13T04:41:09;3.60;;;1.60;;
76807;SDS011;65758;45.458;11.062;2023-07-13T04:43:37;3.60;;;1.70;;
76807;SDS011;65758;45.458;11.062;2023-07-13T04:46:07;5.30;;;1.40;;
76807;SDS011;65758;45.458;11.062;2023-07-13T04:48:37;3.80;;;1.70;;
76807;SDS011;65758;45.458;11.062;2023-07-13T04:51:04;3.20;;;1.60;;
76807;SDS011;65758;45.458;11.062;2023-07-13T04:53:31;5.70;;;2.00;;
76807;SDS011;65758;45.458;11.062;2023-07-13T04:56:01;2.60;;;1.40;;
76807;SDS011;65758;45.458;11.062;2023-07-13T04:58:28;3.20;;;1.30;;
76807;SDS011;65758;45.458;11.062;2023-07-13T05:01:02;2.50;;;1.70;;
76807;SDS011;65758;45.458;11.062;2023-07-13T05:03:30;2.10;;;1.60;;
76807;SDS011;65758;45.458;11.062;2023-07-13T05:05:59;4.50;;;1.60;;
76807;SDS011;65758;45.458;11.062;2023-07-13T05:08:27;5.80;;;1.70;;
76807;SDS011;65758;45.458;11.062;2023-07-13T05:10:54;6.70;;;1.70;;
76807;SDS011;65758;45.458;11.062;2023-07-13T05:13:22;5.00;;;1.60;;
76807;SDS011;65758;45.458;11.062;2023-07-13T05:15:59;1.60;;;1.40;;
76807;SDS011;65758;45.458;11.062;2023-07-13T05:18:28;1.80;;;1.30;;
76807;SDS011;65758;45.458;11.062;2023-07-13T05:21:03;2.70;;;1.40;;
76807;SDS011;65758;45.458;11.062;2023-07-13T05:23:33;1.60;;;1.40;;
76807;SDS011;65758;45.458;11.062;2023-07-13T05:26:02;1.90;;;1.40;;
76807;SDS011;65758;45.458;11.062;2023-07-13T05:28:34;3.40;;;1.30;;
76807;SDS011;65758;45.458;11.062;2023-07-13T05:31:01;2.20;;;1.30;;
76807;SDS011;65758;45.458;11.062;2023-07-13T05:33:28;2.70;;;1.60;;
76807;SDS011;65758;45.458;11.062;2023-07-13T05:35:55;2.60;;;1.50;;
76807;SDS011;65758;45.458;11.062;2023-07-13T05:38:22;4.70;;;1.70;;
76807;SDS011;65758;45.458;11.062;2023-07-13T05:40:50;2.80;;;1.40;;
76807;SDS011;65758;45.458;11.062;2023-07-13T05:43:17;3.10;;;1.50;;
76807;SDS011;65758;45.458;11.062;2023-07-13T05:45:44;5.00;;;2.00;;
76807;SDS011;65758;45.458;11.062;2023-07-13T05:48:11;3.00;;;2.00;;
76807;SDS011;65758;45.458;11.062;2023-07-13T05:50:38;7.40;;;1.90;;
76807;SDS011;65758;45.458;11.062;2023-07-13T05:53:05;2.60;;;1.50;;
76807;SDS011;65758;45.458;11.062;2023-07-13T05:55:32;3.10;;;1.50;;
76807;SDS011;65758;45.458;11.062;2023-07-13T05:57:59;5.30;;;1.80;;
76807;SDS011;65758;45.458;11.062;2023-07-13T06:00:27;11.40;;;1.70;;
76807;SDS011;65758;45.458;11.062;2023-07-13T06:02:55;1.80;;;1.50;;
76807;SDS011;65758;45.458;11.062;2023-07-13T06:05:23;5.00;;;1.60;;
76807;SDS011;65758;45.458;11.062;2023-07-13T06:07:50;3.20;;;1.30;;
76807;SDS011;65758;45.458;11.062;2023-07-13T06:10:17;2.50;;;1.50;;
76807;SDS011;65758;45.458;11.062;2023-07-13T06:12:44;2.80;;;1.50;;
76807;SDS011;65758;45.458;11.062;2023-07-13T06:15:11;3.20;;;1.60;;
76807;SDS011;65758;45.458;11.062;2023-07-13T06:17:37;2.60;;;1.40;;
76807;SDS011;65758;45.458;11.062;2023-07-13T06:20:05;2.50;;;1.50;;
76807;SDS011;65758;45.458;11.062;2023-07-13T06:22:32;4.90;;;1.60;;
76807;SDS011;65758;45.458;11.062;2023-07-13T06:24:59;3.20;;;1.70;;
76807;SDS011;65758;45.458;11.062;2023-07-13T06:27:26;3.90;;;2.00;;
76807;SDS011;65758;45.458;11.062;2023-07-13T06:29:56;3.50;;;1.60;;
76807;SDS011;65758;45.458;11.062;2023-07-13T06:32:23;4.70;;;1.80;;
76807;SDS011;65758;45.458;11.062;2023-07-13T06:34:50;5.30;;;2.00;;
76807;SDS011;65758;45.458;11.062;2023-07-13T06:37:18;7.00;;;1.70;;
76807;SDS011;65758;45.458;11.062;2023-07-13T06:39:45;1.80;;;1.50;;
76807;SDS011;65758;45.458;11.062;2023-07-13T06:42:12;4.70;;;1.50;;
76807;SDS011;65758;45.458;11.062;2023-07-13T06:44:40;2.20;;;1.50;;
76807;SDS011;65758;45.458;11.062;2023-07-13T06:47:07;4.40;;;1.60;;
76807;SDS011;65758;45.458;11.062;2023-07-13T06:49:34;2.10;;;1.50;;
76807;SDS011;65758;45.458;11.062;2023-07-13T06:52:01;6.20;;;2.10;;
76807;SDS011;65758;45.458;11.062;2023-07-13T06:54:27;2.40;;;1.50;;
76807;SDS011;65758;45.458;11.062;2023-07-13T06:56:54;2.50;;;1.30;;
76807;SDS011;65758;45.458;11.062;2023-07-13T06:59:21;5.70;;;1.80;;
76807;SDS011;65758;45.458;11.062;2023-07-13T07:01:48;3.30;;;1.50;;
76807;SDS011;65758;45.458;11.062;2023-07-13T07:04:15;3.10;;;1.60;;
76807;SDS011;65758;45.458;11.062;2023-07-13T07:06:41;3.10;;;1.40;;
76807;SDS011;65758;45.458;11.062;2023-07-13T07:09:08;3.70;;;1.80;;
76807;SDS011;65758;45.458;11.062;2023-07-13T07:11:35;3.40;;;1.60;;
76807;SDS011;65758;45.458;11.062;2023-07-13T07:14:03;5.10;;;1.90;;
76807;SDS011;65758;45.458;11.062;2023-07-13T07:16:30;2.90;;;2.00;;
76807;SDS011;65758;45.458;11.062;2023-07-13T07:18:57;2.50;;;1.40;;
76807;SDS011;65758;45.458;11.062;2023-07-13T07:21:23;3.20;;;1.70;;
76807;SDS011;65758;45.458;11.062;2023-07-13T07:23:51;4.80;;;1.70;;
76807;SDS011;65758;45.458;11.062;2023-07-13T07:26:18;2.50;;;1.40;;
76807;SDS011;65758;45.458;11.062;2023-07-13T07:28:49;5.10;;;1.60;;
76807;SDS011;65758;45.458;11.062;2023-07-13T07:31:35;4.50;;;1.50;;
76807;SDS011;65758;45.458;11.062;2023-07-13T07:34:06;4.10;;;1.90;;
76807;SDS011;65758;45.458;11.062;2023-07-13T07:36:33;3.50;;;1.70;;
76807;SDS011;65758;45.458;11.062;2023-07-13T07:39:03;5.10;;;2.20;;
76807;SDS011;65758;45.458;11.062;2023-07-13T07:41:31;3.80;;;1.70;;
76807;SDS011;65758;45.458;11.062;2023-07-13T07:44:01;5.80;;;1.80;;
76807;SDS011;65758;45.458;11.062;2023-07-13T07:46:28;5.20;;;1.80;;
76807;SDS011;65758;45.458;11.062;2023-07-13T07:48:55;3.60;;;1.70;;
76807;SDS011;65758;45.458;11.062;2023-07-13T07:51:22;3.60;;;1.80;;
76807;SDS011;65758;45.458;11.062;2023-07-13T07:53:49;3.40;;;2.00;;
76807;SDS011;65758;45.458;11.062;2023-07-13T07:56:16;3.50;;;1.60;;
76807;SDS011;65758;45.458;11.062;2023-07-13T07:58:46;2.60;;;1.50;;
76807;SDS011;65758;45.458;11.062;2023-07-13T08:01:16;2.30;;;1.50;;
76807;SDS011;65758;45.458;11.062;2023-07-13T08:03:45;2.50;;;1.50;;
76807;SDS011;65758;45.458;11.062;2023-07-13T08:06:15;3.70;;;1.70;;
76807;SDS011;65758;45.458;11.062;2023-07-13T08:09:02;2.70;;;1.60;;
76807;SDS011;65758;45.458;11.062;2023-07-13T08:11:30;5.30;;;1.70;;
76807;SDS011;65758;45.458;11.062;2023-07-13T08:14:00;2.20;;;1.80;;
76807;SDS011;65758;45.458;11.062;2023-07-13T08:16:27;3.40;;;1.70;;
76807;SDS011;65758;45.458;11.062;2023-07-13T08:18:54;4.80;;;1.60;;
76807;SDS011;65758;45.458;11.062;2023-07-13T08:21:21;3.40;;;1.60;;
76807;SDS011;65758;45.458;11.062;2023-07-13T08:23:48;3.80;;;1.60;;
76807;SDS011;65758;45.458;11.062;2023-07-13T08:26:15;6.70;;;1.70;;
76807;SDS011;65758;45.458;11.062;2023-07-13T08:28:42;2.40;;;1.80;;
76807;SDS011;65758;45.458;11.062;2023-07-13T08:31:09;3.20;;;1.60;;
76807;SDS011;65758;45.458;11.062;2023-07-13T08:33:37;3.00;;;2.10;;
76807;SDS011;65758;45.458;11.062;2023-07-13T08:36:04;4.00;;;1.60;;
76807;SDS011;65758;45.458;11.062;2023-07-13T08:38:32;5.80;;;1.90;;
76807;SDS011;65758;45.458;11.062;2023-07-13T08:41:00;2.70;;;1.80;;
76807;SDS011;65758;45.458;11.062;2023-07-13T08:43:36;6.20;;;1.80;;
76807;SDS011;65758;45.458;11.062;2023-07-13T08:46:15;1.70;;;1.50;;
76807;SDS011;65758;45.458;11.062;2023-07-13T08:48:49;4.80;;;1.90;;
76807;SDS011;65758;45.458;11.062;2023-07-13T08:54:00;5.10;;;2.00;;
76807;SDS011;65758;45.458;11.062;2023-07-13T08:56:29;5.30;;;1.80;;
76807;SDS011;65758;45.458;11.062;2023-07-13T08:58:58;4.50;;;2.10;;
76807;SDS011;65758;45.458;11.062;2023-07-13T09:04:59;29.90;;;3.40;;
76807;SDS011;65758;45.458;11.062;2023-07-13T09:10:33;19.80;;;3.30;;
76807;SDS011;65758;45.458;11.062;2023-07-13T09:13:18;14.90;;;3.40;;
76807;SDS011;65758;45.458;11.062;2023-07-13T09:16:02;18.70;;;3.10;;
76807;SDS011;65758;45.458;11.062;2023-07-13T09:18:34;16.40;;;4.00;;
76807;SDS011;65758;45.458;11.062;2023-07-13T09:23:42;13.50;;;3.20;;
76807;SDS011;65758;45.458;11.062;2023-07-13T09:28:41;16.80;;;3.70;;
76807;SDS011;65758;45.458;11.062;2023-07-13T09:31:14;7.90;;;2.40;;
76807;SDS011;65758;45.458;11.062;2023-07-13T09:33:56;9.20;;;2.50;;
76807;SDS011;65758;45.458;11.062;2023-07-13T09:36:30;11.50;;;2.90;;
76807;SDS011;65758;45.458;11.062;2023-07-13T09:41:41;6.90;;;2.60;;
76807;SDS011;65758;45.458;11.062;2023-07-13T09:44:29;6.30;;;2.00;;
76807;SDS011;65758;45.458;11.062;2023-07-13T09:47:00;8.00;;;2.60;;
76807;SDS011;65758;45.458;11.062;2023-07-13T09:49:28;8.90;;;2.30;;
76807;SDS011;65758;45.458;11.062;2023-07-13T09:52:05;4.90;;;1.90;;
76807;SDS011;65758;45.458;11.062;2023-07-13T09:54:37;4.70;;;2.00;;
76807;SDS011;65758;45.458;11.062;2023-07-13T09:57:17;4.70;;;2.00;;
76807;SDS011;65758;45.458;11.062;2023-07-13T10:00:00;2.20;;;1.90;;
76807;SDS011;65758;45.458;11.062;2023-07-13T10:02:32;3.70;;;1.80;;
76807;SDS011;65758;45.458;11.062;2023-07-13T10:05:01;4.10;;;1.80;;
76807;SDS011;65758;45.458;11.062;2023-07-13T10:07:30;5.10;;;2.00;;
76807;SDS011;65758;45.458;11.062;2023-07-13T10:09:59;4.50;;;2.00;;
76807;SDS011;65758;45.458;11.062;2023-07-13T10:12:28;3.40;;;1.80;;
76807;SDS011;65758;45.458;11.062;2023-07-13T10:14:57;3.30;;;2.10;;
76807;SDS011;65758;45.458;11.062;2023-07-13T10:17:46;6.20;;;2.30;;
76807;SDS011;65758;45.458;11.062;2023-07-13T10:20:15;3.00;;;2.00;;
76807;SDS011;65758;45.458;11.062;2023-07-13T10:22:44;4.40;;;2.20;;
76807;SDS011;65758;45.458;11.062;2023-07-13T10:25:17;5.70;;;2.00;;
76807;SDS011;65758;45.458;11.062;2023-07-13T10:27:45;6.20;;;2.00;;
76807;SDS011;65758;45.458;11.062;2023-07-13T10:30:24;6.70;;;2.00;;
76807;SDS011;65758;45.458;11.062;2023-07-13T10:32:58;5.00;;;2.10;;
76807;SDS011;65758;45.458;11.062;2023-07-13T10:35:29;4.50;;;2.00;;
76807;SDS011;65758;45.458;11.062;2023-07-13T10:40:48;5.50;;;2.20;;
76807;SDS011;65758;45.458;11.062;2023-07-13T10:44:03;5.60;;;2.10;;
76807;SDS011;65758;45.458;11.062;2023-07-13T10:46:25;3.70;;;2.20;;
76807;SDS011;65758;45.458;11.062;2023-07-13T10:48:56;3.10;;;2.10;;
76807;SDS011;65758;45.458;11.062;2023-07-13T10:51:26;5.70;;;2.20;;
76807;SDS011;65758;45.458;11.062;2023-07-13T10:54:11;4.20;;;2.40;;
76807;SDS011;65758;45.458;11.062;2023-07-13T10:57:34;4.90;;;2.30;;
76807;SDS011;65758;45.458;11.062;2023-07-13T10:59:49;5.00;;;2.30;;
76807;SDS011;65758;45.458;11.062;2023-07-13T11:02:28;6.20;;;2.30;;
76807;SDS011;65758;45.458;11.062;2023-07-13T11:04:56;7.00;;;2.70;;
76807;SDS011;65758;45.458;11.062;2023-07-13T11:07:28;8.20;;;2.40;;
76807;SDS011;65758;45.458;11.062;2023-07-13T11:09:58;4.00;;;2.10;;
76807;SDS011;65758;45.458;11.062;2023-07-13T11:12:49;3.70;;;2.40;;
76807;SDS011;65758;45.458;11.062;2023-07-13T11:15:27;5.70;;;2.50;;
76807;SDS011;65758;45.458;11.062;2023-07-13T11:18:19;3.30;;;2.20;;
76807;SDS011;65758;45.458;11.062;2023-07-13T11:20:49;3.60;;;2.30;;
76807;SDS011;65758;45.458;11.062;2023-07-13T11:25:44;4.40;;;2.30;;
76807;SDS011;65758;45.458;11.062;2023-07-13T11:30:42;3.50;;;2.10;;
76807;SDS011;65758;45.458;11.062;2023-07-13T11:33:12;10.00;;;2.30;;
76807;SDS011;65758;45.458;11.062;2023-07-13T11:38:41;5.40;;;2.20;;
76807;SDS011;65758;45.458;11.062;2023-07-13T11:41:19;5.10;;;2.60;;
76807;SDS011;65758;45.458;11.062;2023-07-13T11:43:53;4.70;;;2.30;;
76807;SDS011;65758;45.458;11.062;2023-07-13T11:46:27;5.90;;;2.60;;
76807;SDS011;65758;45.458;11.062;2023-07-13T11:48:54;4.00;;;2.10;;
76807;SDS011;65758;45.458;11.062;2023-07-13T11:51:22;4.90;;;2.60;;
76807;SDS011;65758;45.458;11.062;2023-07-13T11:54:02;4.50;;;2.40;;
76807;SDS011;65758;45.458;11.062;2023-07-13T11:56:32;8.20;;;2.50;;
76807;SDS011;65758;45.458;11.062;2023-07-13T11:59:04;4.70;;;2.20;;
76807;SDS011;65758;45.458;11.062;2023-07-13T12:01:42;6.50;;;2.50;;
76807;SDS011;65758;45.458;11.062;2023-07-13T12:04:20;6.80;;;2.60;;
76807;SDS011;65758;45.458;11.062;2023-07-13T12:06:53;4.90;;;2.80;;
76807;SDS011;65758;45.458;11.062;2023-07-13T12:09:22;4.50;;;2.50;;
76807;SDS011;65758;45.458;11.062;2023-07-13T12:11:52;4.50;;;2.50;;
76807;SDS011;65758;45.458;11.062;2023-07-13T12:14:19;7.20;;;2.90;;
76807;SDS011;65758;45.458;11.062;2023-07-13T12:16:46;4.40;;;2.50;;
76807;SDS011;65758;45.458;11.062;2023-07-13T12:19:16;9.00;;;2.90;;
76807;SDS011;65758;45.458;11.062;2023-07-13T12:21:55;5.80;;;2.50;;
76807;SDS011;65758;45.458;11.062;2023-07-13T12:24:24;5.20;;;2.70;;
76807;SDS011;65758;45.458;11.062;2023-07-13T12:26:53;5.60;;;2.90;;
76807;SDS011;65758;45.458;11.062;2023-07-13T12:29:26;6.60;;;3.00;;
76807;SDS011;65758;45.458;11.062;2023-07-13T12:31:53;8.10;;;2.90;;
76807;SDS011;65758;45.458;11.062;2023-07-13T12:34:23;6.10;;;3.20;;
76807;SDS011;65758;45.458;11.062;2023-07-13T12:36:58;9.80;;;3.40;;
76807;SDS011;65758;45.458;11.062;2023-07-13T12:39:37;4.30;;;2.80;;
76807;SDS011;65758;45.458;11.062;2023-07-13T12:45:01;6.90;;;2.80;;
76807;SDS011;65758;45.458;11.062;2023-07-13T12:47:52;7.00;;;2.50;;
76807;SDS011;65758;45.458;11.062;2023-07-13T12:50:40;5.60;;;2.80;;
76807;SDS011;65758;45.458;11.062;2023-07-13T12:53:12;7.20;;;2.90;;
76807;SDS011;65758;45.458;11.062;2023-07-13T12:55:59;6.50;;;2.90;;
76807;SDS011;65758;45.458;11.062;2023-07-13T12:58:30;5.60;;;2.70;;
76807;SDS011;65758;45.458;11.062;2023-07-13T13:01:02;6.40;;;2.30;;
76807;SDS011;65758;45.458;11.062;2023-07-13T13:03:33;4.90;;;2.40;;
76807;SDS011;65758;45.458;11.062;2023-07-13T13:06:06;3.50;;;2.40;;
76807;SDS011;65758;45.458;11.062;2023-07-13T13:08:52;3.90;;;2.10;;
76807;SDS011;65758;45.458;11.062;2023-07-13T13:11:25;9.00;;;2.70;;
76807;SDS011;65758;45.458;11.062;2023-07-13T13:13:54;7.50;;;2.60;;
76807;SDS011;65758;45.458;11.062;2023-07-13T13:16:29;4.60;;;2.20;;
76807;SDS011;65758;45.458;11.062;2023-07-13T13:19:13;5.30;;;2.40;;
76807;SDS011;65758;45.458;11.062;2023-07-13T13:21:45;5.30;;;2.50;;
76807;SDS011;65758;45.458;11.062;2023-07-13T13:24:15;3.80;;;2.50;;
76807;SDS011;65758;45.458;11.062;2023-07-13T13:26:44;5.70;;;2.60;;
76807;SDS011;65758;45.458;11.062;2023-07-13T13:29:13;6.90;;;2.60;;
76807;SDS011;65758;45.458;11.062;2023-07-13T13:31:45;6.60;;;2.80;;
76807;SDS011;65758;45.458;11.062;2023-07-13T13:34:14;6.20;;;3.20;;
76807;SDS011;65758;45.458;11.062;2023-07-13T13:36:43;4.10;;;2.90;;
76807;SDS011;65758;45.458;11.062;2023-07-13T13:39:17;5.00;;;2.80;;
76807;SDS011;65758;45.458;11.062;2023-07-13T13:41:47;6.30;;;3.00;;
76807;SDS011;65758;45.458;11.062;2023-07-13T13:44:15;5.40;;;2.70;;
76807;SDS011;65758;45.458;11.062;2023-07-13T13:46:47;7.80;;;2.90;;
76807;SDS011;65758;45.458;11.062;2023-07-13T13:49:21;8.10;;;2.90;;
76807;SDS011;65758;45.458;11.062;2023-07-13T13:51:50;5.00;;;2.50;;
76807;SDS011;65758;45.458;11.062;2023-07-13T13:54:18;4.90;;;3.00;;
76807;SDS011;65758;45.458;11.062;2023-07-13T13:56:47;8.60;;;3.00;;
76807;SDS011;65758;45.458;11.062;2023-07-13T13:59:16;8.40;;;3.30;;
76807;SDS011;65758;45.458;11.062;2023-07-13T14:01:44;5.90;;;2.90;;
76807;SDS011;65758;45.458;11.062;2023-07-13T14:04:16;5.00;;;3.00;;
76807;SDS011;65758;45.458;11.062;2023-07-13T14:06:46;8.00;;;3.50;;
76807;SDS011;65758;45.458;11.062;2023-07-13T14:09:14;6.20;;;3.00;;
76807;SDS011;65758;45.458;11.062;2023-07-13T14:11:45;5.50;;;2.90;;
76807;SDS011;65758;45.458;11.062;2023-07-13T14:16:45;8.70;;;3.40;;
76807;SDS011;65758;45.458;11.062;2023-07-13T14:19:19;7.90;;;2.90;;
76807;SDS011;65758;45.458;11.062;2023-07-13T14:21:47;4.10;;;2.70;;
76807;SDS011;65758;45.458;11.062;2023-07-13T14:24:19;6.20;;;2.80;;
76807;SDS011;65758;45.458;11.062;2023-07-13T14:26:48;6.70;;;2.70;;
76807;SDS011;65758;45.458;11.062;2023-07-13T14:29:17;5.90;;;2.70;;
76807;SDS011;65758;45.458;11.062;2023-07-13T14:31:49;6.30;;;3.00;;
76807;SDS011;65758;45.458;11.062;2023-07-13T14:34:17;7.20;;;3.20;;
76807;SDS011;65758;45.458;11.062;2023-07-13T14:36:44;8.80;;;3.00;;
76807;SDS011;65758;45.458;11.062;2023-07-13T14:39:17;6.50;;;3.20;;
76807;SDS011;65758;45.458;11.062;2023-07-13T14:41:48;8.40;;;2.80;;
76807;SDS011;65758;45.458;11.062;2023-07-13T14:44:17;4.60;;;3.00;;
76807;SDS011;65758;45.458;11.062;2023-07-13T14:46:47;5.80;;;2.60;;
76807;SDS011;65758;45.458;11.062;2023-07-13T14:51:51;6.50;;;2.60;;
76807;SDS011;65758;45.458;11.062;2023-07-13T14:54:19;8.00;;;3.10;;
76807;SDS011;65758;45.458;11.062;2023-07-13T14:56:45;5.80;;;3.00;;
76807;SDS011;65758;45.458;11.062;2023-07-13T14:59:12;7.40;;;3.60;;
76807;SDS011;65758;45.458;11.062;2023-07-13T15:01:40;5.90;;;2.70;;
76807;SDS011;65758;45.458;11.062;2023-07-13T15:04:08;6.60;;;3.00;;
76807;SDS011;65758;45.458;11.062;2023-07-13T15:06:55;4.40;;;3.00;;
76807;SDS011;65758;45.458;11.062;2023-07-13T15:09:23;6.50;;;3.20;;
76807;SDS011;65758;45.458;11.062;2023-07-13T15:11:54;6.10;;;2.60;;
76807;SDS011;65758;45.458;11.062;2023-07-13T15:14:22;5.60;;;2.90;;
76807;SDS011;65758;45.458;11.062;2023-07-13T15:16:51;7.70;;;2.90;;
76807;SDS011;65758;45.458;11.062;2023-07-13T15:19:20;6.50;;;3.20;;
76807;SDS011;65758;45.458;11.062;2023-07-13T15:21:47;10.10;;;4.00;;
76807;SDS011;65758;45.458;11.062;2023-07-13T15:24:14;4.50;;;2.70;;
76807;SDS011;65758;45.458;11.062;2023-07-13T15:26:42;5.20;;;2.40;;
76807;SDS011;65758;45.458;11.062;2023-07-13T15:29:15;4.50;;;2.70;;
76807;SDS011;65758;45.458;11.062;2023-07-13T15:31:43;6.10;;;2.50;;